Matamoras, Ohio
Current Conditions -  °F | °C
As of 8:53 AM on Wednesday 26 Nov 2014 (Local Time) from KPKB Reporting Station
Overcast Overcast  
Wind Chill: 29°   Ceiling: 4000
Heat Index: 35°   Visibility: 10mi
Dew Point: 26°   Wind: 8mph
Humidity: 70%   Direction: 10°N
Pressure: 30.11"   Gusts: NA
Location:  39.5286°N, 81.1317°W
Report Text: KPKB 261353Z 01007KT 10SM OVC040 02/M03 A3011 RMK AO2 SLP200 T00171033
Loading
Personal Weather Stations






























Interactive Weather Map New forecast layout! Learn more

10-Day Weather Forecast

Advertisements
Track Severe Weather on mobile